sensor_id;sensor_type;location;lat;lon;timestamp;pressure;altitude;pressure_sealevel;temperature;humidity
38786;BME280;24535;45.508;12.252;2023-03-14T00:02:10;101009.88;;;15.23;61.08
38786;BME280;24535;45.508;12.252;2023-03-14T00:04:35;100994.66;;;15.25;61.20
38786;BME280;24535;45.508;12.252;2023-03-14T00:07:01;100989.59;;;15.22;61.63
38786;BME280;24535;45.508;12.252;2023-03-14T00:09:26;101001.66;;;15.26;61.18
38786;BME280;24535;45.508;12.252;2023-03-14T00:11:55;100997.19;;;15.26;61.59
38786;BME280;24535;45.508;12.252;2023-03-14T00:14:20;101000.56;;;15.28;61.52
38786;BME280;24535;45.508;12.252;2023-03-14T00:16:46;100993.59;;;15.27;62.12
38786;BME280;24535;45.508;12.252;2023-03-14T00:19:11;100994.53;;;15.26;61.95
38786;BME280;24535;45.508;12.252;2023-03-14T00:21:37;100983.81;;;15.28;62.02
38786;BME280;24535;45.508;12.252;2023-03-14T00:24:02;100990.78;;;15.29;61.60
38786;BME280;24535;45.508;12.252;2023-03-14T00:26:28;100982.09;;;15.27;61.98
38786;BME280;24535;45.508;12.252;2023-03-14T00:28:53;100987.06;;;15.31;62.17
38786;BME280;24535;45.508;12.252;2023-03-14T00:31:22;100977.53;;;15.29;62.58
38786;BME280;24535;45.508;12.252;2023-03-14T00:33:48;100969.81;;;15.26;62.18
38786;BME280;24535;45.508;12.252;2023-03-14T00:36:15;100976.09;;;15.25;62.31
38786;BME280;24535;45.508;12.252;2023-03-14T00:38:47;100963.81;;;15.24;62.67
38786;BME280;24535;45.508;12.252;2023-03-14T00:41:15;100964.03;;;15.21;62.48
38786;BME280;24535;45.508;12.252;2023-03-14T00:43:41;100947.53;;;15.17;63.05
38786;BME280;24535;45.508;12.252;2023-03-14T00:46:08;100952.13;;;15.15;62.82
38786;BME280;24535;45.508;12.252;2023-03-14T00:48:34;100955.88;;;15.13;63.29
38786;BME280;24535;45.508;12.252;2023-03-14T00:51:00;100956.97;;;15.10;63.35
38786;BME280;24535;45.508;12.252;2023-03-14T00:53:26;100950.56;;;15.13;63.22
38786;BME280;24535;45.508;12.252;2023-03-14T00:55:51;100944.53;;;15.11;63.39
38786;BME280;24535;45.508;12.252;2023-03-14T00:58:17;100929.59;;;15.09;63.83
38786;BME280;24535;45.508;12.252;2023-03-14T01:00:43;100935.03;;;15.08;63.34
38786;BME280;24535;45.508;12.252;2023-03-14T01:03:10;100933.91;;;15.11;63.84
38786;BME280;24535;45.508;12.252;2023-03-14T01:05:36;100937.31;;;15.13;64.21
38786;BME280;24535;45.508;12.252;2023-03-14T01:08:06;100923.06;;;15.14;63.82
38786;BME280;24535;45.508;12.252;2023-03-14T01:10:33;100919.44;;;15.15;63.79
38786;BME280;24535;45.508;12.252;2023-03-14T01:12:58;100909.69;;;15.15;63.80
38786;BME280;24535;45.508;12.252;2023-03-14T01:15:27;100906.16;;;15.15;63.56
38786;BME280;24535;45.508;12.252;2023-03-14T01:17:52;100908.81;;;15.15;63.98
38786;BME280;24535;45.508;12.252;2023-03-14T01:20:18;100909.69;;;15.15;63.30
38786;BME280;24535;45.508;12.252;2023-03-14T01:22:43;100905.47;;;15.13;63.54
38786;BME280;24535;45.508;12.252;2023-03-14T01:25:12;100901.97;;;15.12;64.09
38786;BME280;24535;45.508;12.252;2023-03-14T01:27:38;100883.50;;;15.11;63.65
38786;BME280;24535;45.508;12.252;2023-03-14T01:30:05;100879.16;;;15.09;64.34
38786;BME280;24535;45.508;12.252;2023-03-14T01:32:31;100860.75;;;15.08;63.73
38786;BME280;24535;45.508;12.252;2023-03-14T01:34:56;100845.31;;;15.02;64.05
38786;BME280;24535;45.508;12.252;2023-03-14T01:37:28;100835.69;;;15.01;64.44
38786;BME280;24535;45.508;12.252;2023-03-14T01:39:53;100823.78;;;14.95;64.24
38786;BME280;24535;45.508;12.252;2023-03-14T01:42:21;100821.97;;;14.96;64.52
38786;BME280;24535;45.508;12.252;2023-03-14T01:44:58;100819.31;;;14.96;64.91
38786;BME280;24535;45.508;12.252;2023-03-14T01:47:24;100800.03;;;14.94;64.21
38786;BME280;24535;45.508;12.252;2023-03-14T01:50:14;100806.44;;;14.91;64.31
38786;BME280;24535;45.508;12.252;2023-03-14T01:52:44;100799.72;;;14.87;64.41
38786;BME280;24535;45.508;12.252;2023-03-14T01:55:20;100787.78;;;14.81;65.05
38786;BME280;24535;45.508;12.252;2023-03-14T01:57:56;100774.41;;;14.83;65.34
38786;BME280;24535;45.508;12.252;2023-03-14T02:00:24;100783.72;;;14.77;64.48
38786;BME280;24535;45.508;12.252;2023-03-14T02:02:58;100779.25;;;14.78;64.70
38786;BME280;24535;45.508;12.252;2023-03-14T02:05:28;100765.16;;;14.77;65.34
38786;BME280;24535;45.508;12.252;2023-03-14T02:07:58;100762.50;;;14.77;64.71
38786;BME280;24535;45.508;12.252;2023-03-14T02:10:35;100764.56;;;14.74;65.12
38786;BME280;24535;45.508;12.252;2023-03-14T02:13:04;100764.31;;;14.77;64.93
38786;BME280;24535;45.508;12.252;2023-03-14T02:15:31;100766.28;;;14.75;65.40
38786;BME280;24535;45.508;12.252;2023-03-14T02:17:58;100756.34;;;14.77;64.89
38786;BME280;24535;45.508;12.252;2023-03-14T02:22:50;100765.28;;;14.76;65.37
38786;BME280;24535;45.508;12.252;2023-03-14T02:28:01;100768.25;;;14.82;65.12
38786;BME280;24535;45.508;12.252;2023-03-14T02:30:31;100772.47;;;14.85;65.12
38786;BME280;24535;45.508;12.252;2023-03-14T02:33:05;100781.84;;;14.89;65.04
38786;BME280;24535;45.508;12.252;2023-03-14T02:38:15;100777.81;;;14.95;64.87
38786;BME280;24535;45.508;12.252;2023-03-14T02:40:43;100773.94;;;14.99;64.53
38786;BME280;24535;45.508;12.252;2023-03-14T02:43:09;100759.97;;;14.97;64.48
38786;BME280;24535;45.508;12.252;2023-03-14T02:45:45;100756.22;;;14.99;65.13
38786;BME280;24535;45.508;12.252;2023-03-14T02:48:18;100743.09;;;14.98;64.75
38786;BME280;24535;45.508;12.252;2023-03-14T02:50:46;100758.16;;;14.97;64.71
38786;BME280;24535;45.508;12.252;2023-03-14T02:53:16;100747.41;;;14.99;64.65
38786;BME280;24535;45.508;12.252;2023-03-14T02:55:55;100749.94;;;15.00;65.38
38786;BME280;24535;45.508;12.252;2023-03-14T02:58:20;100745.22;;;15.04;65.00
38786;BME280;24535;45.508;12.252;2023-03-14T03:00:46;100732.22;;;15.01;64.76
38786;BME280;24535;45.508;12.252;2023-03-14T03:03:12;100727.75;;;15.01;64.96
38786;BME280;24535;45.508;12.252;2023-03-14T03:05:38;100718.94;;;15.01;64.67
38786;BME280;24535;45.508;12.252;2023-03-14T03:08:04;100712.81;;;15.00;65.13
38786;BME280;24535;45.508;12.252;2023-03-14T03:10:29;100714.63;;;15.00;65.23
38786;BME280;24535;45.508;12.252;2023-03-14T03:12:55;100698.97;;;14.97;64.95
38786;BME280;24535;45.508;12.252;2023-03-14T03:15:21;100725.50;;;14.97;64.79
38786;BME280;24535;45.508;12.252;2023-03-14T03:17:46;100726.31;;;14.97;65.18
38786;BME280;24535;45.508;12.252;2023-03-14T03:20:12;100729.56;;;15.01;64.47
38786;BME280;24535;45.508;12.252;2023-03-14T03:22:38;100730.16;;;15.04;64.98
38786;BME280;24535;45.508;12.252;2023-03-14T03:25:05;100719.38;;;15.06;64.78
38786;BME280;24535;45.508;12.252;2023-03-14T03:27:32;100700.69;;;15.07;64.92
38786;BME280;24535;45.508;12.252;2023-03-14T03:29:58;100694.69;;;15.05;64.60
38786;BME280;24535;45.508;12.252;2023-03-14T03:32:24;100693.97;;;15.03;64.77
38786;BME280;24535;45.508;12.252;2023-03-14T03:34:49;100696.88;;;15.00;64.70
38786;BME280;24535;45.508;12.252;2023-03-14T03:37:15;100692.69;;;14.98;64.96
38786;BME280;24535;45.508;12.252;2023-03-14T03:39:41;100681.50;;;14.94;64.41
38786;BME280;24535;45.508;12.252;2023-03-14T03:42:06;100679.22;;;14.90;65.25
38786;BME280;24535;45.508;12.252;2023-03-14T03:44:32;100672.50;;;14.86;64.97
38786;BME280;24535;45.508;12.252;2023-03-14T03:46:57;100689.41;;;14.84;65.33
38786;BME280;24535;45.508;12.252;2023-03-14T03:49:23;100687.72;;;14.83;65.54
38786;BME280;24535;45.508;12.252;2023-03-14T03:51:48;100682.28;;;14.85;65.49
38786;BME280;24535;45.508;12.252;2023-03-14T03:54:14;100677.72;;;14.87;65.19
38786;BME280;24535;45.508;12.252;2023-03-14T03:56:39;100683.69;;;14.89;65.18
38786;BME280;24535;45.508;12.252;2023-03-14T03:59:05;100677.56;;;14.89;64.94
38786;BME280;24535;45.508;12.252;2023-03-14T04:01:30;100667.94;;;14.88;65.03
38786;BME280;24535;45.508;12.252;2023-03-14T04:03:56;100658.16;;;14.88;64.86
38786;BME280;24535;45.508;12.252;2023-03-14T04:06:21;100657.59;;;14.84;65.43
38786;BME280;24535;45.508;12.252;2023-03-14T04:08:47;100648.06;;;14.82;65.22
38786;BME280;24535;45.508;12.252;2023-03-14T04:11:12;100651.94;;;14.78;65.11
38786;BME280;24535;45.508;12.252;2023-03-14T04:13:38;100627.38;;;14.76;65.24
38786;BME280;24535;45.508;12.252;2023-03-14T04:16:11;100615.38;;;14.72;65.20
38786;BME280;24535;45.508;12.252;2023-03-14T04:18:39;100612.97;;;14.69;65.45
38786;BME280;24535;45.508;12.252;2023-03-14T04:21:05;100600.81;;;14.66;65.86
38786;BME280;24535;45.508;12.252;2023-03-14T04:23:30;100600.97;;;14.65;65.86
38786;BME280;24535;45.508;12.252;2023-03-14T04:25:56;100602.06;;;14.62;65.87
38786;BME280;24535;45.508;12.252;2023-03-14T04:28:21;100604.69;;;14.62;65.99
38786;BME280;24535;45.508;12.252;2023-03-14T04:30:47;100603.03;;;14.61;65.64
38786;BME280;24535;45.508;12.252;2023-03-14T04:33:12;100601.59;;;14.57;66.07
38786;BME280;24535;45.508;12.252;2023-03-14T04:35:43;100608.03;;;14.54;65.75
38786;BME280;24535;45.508;12.252;2023-03-14T04:38:08;100612.47;;;14.54;66.33
38786;BME280;24535;45.508;12.252;2023-03-14T04:40:37;100616.09;;;14.53;66.02
38786;BME280;24535;45.508;12.252;2023-03-14T04:43:02;100607.06;;;14.55;66.02
38786;BME280;24535;45.508;12.252;2023-03-14T04:45:28;100604.41;;;14.55;66.55
38786;BME280;24535;45.508;12.252;2023-03-14T04:47:53;100598.28;;;14.55;66.34
38786;BME280;24535;45.508;12.252;2023-03-14T04:50:19;100574.53;;;14.53;65.88
38786;BME280;24535;45.508;12.252;2023-03-14T04:52:44;100563.91;;;14.53;65.94
38786;BME280;24535;45.508;12.252;2023-03-14T04:55:10;100552.16;;;14.46;66.21
38786;BME280;24535;45.508;12.252;2023-03-14T04:57:38;100551.28;;;14.46;66.07
38786;BME280;24535;45.508;12.252;2023-03-14T05:00:04;100543.13;;;14.49;66.95
38786;BME280;24535;45.508;12.252;2023-03-14T05:02:34;100504.56;;;14.45;66.41
38786;BME280;24535;45.508;12.252;2023-03-14T05:05:00;100480.72;;;14.45;66.85
38786;BME280;24535;45.508;12.252;2023-03-14T05:07:25;100477.38;;;14.43;66.06
38786;BME280;24535;45.508;12.252;2023-03-14T05:09:51;100470.66;;;14.39;66.20
38786;BME280;24535;45.508;12.252;2023-03-14T05:12:19;100485.97;;;14.35;66.81
38786;BME280;24535;45.508;12.252;2023-03-14T05:14:44;100500.19;;;14.34;66.86
38786;BME280;24535;45.508;12.252;2023-03-14T05:17:10;100484.44;;;14.32;66.68
38786;BME280;24535;45.508;12.252;2023-03-14T05:19:36;100463.38;;;14.31;67.21
38786;BME280;24535;45.508;12.252;2023-03-14T05:22:02;100449.41;;;14.29;67.11
38786;BME280;24535;45.508;12.252;2023-03-14T05:24:27;100451.47;;;14.25;67.13
38786;BME280;24535;45.508;12.252;2023-03-14T05:26:53;100461.38;;;14.23;66.79
38786;BME280;24535;45.508;12.252;2023-03-14T05:29:18;100467.53;;;14.24;67.12
38786;BME280;24535;45.508;12.252;2023-03-14T05:31:44;100460.56;;;14.23;67.57
38786;BME280;24535;45.508;12.252;2023-03-14T05:34:09;100448.25;;;14.22;67.63
38786;BME280;24535;45.508;12.252;2023-03-14T05:36:35;100430.84;;;14.19;66.70
38786;BME280;24535;45.508;12.252;2023-03-14T05:39:00;100440.59;;;14.19;66.97
38786;BME280;24535;45.508;12.252;2023-03-14T05:41:26;100444.91;;;14.20;67.02
38786;BME280;24535;45.508;12.252;2023-03-14T05:43:51;100446.59;;;14.21;67.20
38786;BME280;24535;45.508;12.252;2023-03-14T05:46:17;100440.31;;;14.22;67.09
38786;BME280;24535;45.508;12.252;2023-03-14T05:48:42;100436.72;;;14.23;67.45
38786;BME280;24535;45.508;12.252;2023-03-14T05:51:08;100430.84;;;14.19;67.70
38786;BME280;24535;45.508;12.252;2023-03-14T05:53:33;100418.69;;;14.17;67.37
38786;BME280;24535;45.508;12.252;2023-03-14T05:55:59;100421.22;;;14.18;67.63
38786;BME280;24535;45.508;12.252;2023-03-14T05:58:24;100413.28;;;14.18;67.34
38786;BME280;24535;45.508;12.252;2023-03-14T06:00:50;100411.44;;;14.19;67.60
38786;BME280;24535;45.508;12.252;2023-03-14T06:03:15;100406.72;;;14.22;68.05
38786;BME280;24535;45.508;12.252;2023-03-14T06:05:41;100409.91;;;14.26;67.78
38786;BME280;24535;45.508;12.252;2023-03-14T06:08:06;100395.44;;;14.30;68.02
38786;BME280;24535;45.508;12.252;2023-03-14T06:10:32;100385.81;;;14.29;67.57
38786;BME280;24535;45.508;12.252;2023-03-14T06:12:57;100398.06;;;14.30;67.71
38786;BME280;24535;45.508;12.252;2023-03-14T06:15:23;100408.69;;;14.30;67.47
38786;BME280;24535;45.508;12.252;2023-03-14T06:17:48;100412.31;;;14.29;67.55
38786;BME280;24535;45.508;12.252;2023-03-14T06:20:14;100413.44;;;14.26;67.73
38786;BME280;24535;45.508;12.252;2023-03-14T06:22:40;100411.63;;;14.27;67.94
38786;BME280;24535;45.508;12.252;2023-03-14T06:25:07;100408.00;;;14.28;67.95
38786;BME280;24535;45.508;12.252;2023-03-14T06:27:33;100404.50;;;14.27;67.78
38786;BME280;24535;45.508;12.252;2023-03-14T06:29:59;100411.31;;;14.30;67.97
38786;BME280;24535;45.508;12.252;2023-03-14T06:32:24;100416.25;;;14.34;67.68
38786;BME280;24535;45.508;12.252;2023-03-14T06:34:50;100393.25;;;14.35;67.56
38786;BME280;24535;45.508;12.252;2023-03-14T06:37:15;100380.81;;;14.35;67.88
38786;BME280;24535;45.508;12.252;2023-03-14T06:39:41;100382.63;;;14.35;67.73
38786;BME280;24535;45.508;12.252;2023-03-14T06:42:06;100378.28;;;14.34;67.34
38786;BME280;24535;45.508;12.252;2023-03-14T06:44:32;100391.41;;;14.35;67.45
38786;BME280;24535;45.508;12.252;2023-03-14T06:46:58;100363.09;;;14.36;67.49
38786;BME280;24535;45.508;12.252;2023-03-14T06:49:24;100358.78;;;14.35;67.57
38786;BME280;24535;45.508;12.252;2023-03-14T06:51:50;100359.88;;;14.32;67.96
38786;BME280;24535;45.508;12.252;2023-03-14T06:54:15;100363.25;;;14.34;67.39
38786;BME280;24535;45.508;12.252;2023-03-14T06:56:41;100356.72;;;14.39;67.90
38786;BME280;24535;45.508;12.252;2023-03-14T06:59:06;100357.38;;;14.41;67.88
38786;BME280;24535;45.508;12.252;2023-03-14T07:01:31;100380.16;;;14.43;67.69
38786;BME280;24535;45.508;12.252;2023-03-14T07:04:00;100417.56;;;14.50;67.14
38786;BME280;24535;45.508;12.252;2023-03-14T07:06:26;100435.59;;;14.56;67.17
38786;BME280;24535;45.508;12.252;2023-03-14T07:08:54;100443.69;;;14.64;66.83
38786;BME280;24535;45.508;12.252;2023-03-14T07:11:20;100452.78;;;14.71;66.66
38786;BME280;24535;45.508;12.252;2023-03-14T07:13:45;100458.50;;;14.76;66.52
38786;BME280;24535;45.508;12.252;2023-03-14T07:16:11;100467.88;;;14.80;66.45
38786;BME280;24535;45.508;12.252;2023-03-14T07:18:36;100457.69;;;14.86;66.36
38786;BME280;24535;45.508;12.252;2023-03-14T07:21:03;100462.88;;;14.87;66.25
38786;BME280;24535;45.508;12.252;2023-03-14T07:23:29;100474.44;;;14.86;66.75
38786;BME280;24535;45.508;12.252;2023-03-14T07:25:56;100469.13;;;14.86;66.15
38786;BME280;24535;45.508;12.252;2023-03-14T07:28:21;100464.81;;;14.85;66.27
38786;BME280;24535;45.508;12.252;2023-03-14T07:30:48;100468.19;;;14.87;66.57
38786;BME280;24535;45.508;12.252;2023-03-14T07:33:13;100463.81;;;14.86;66.38
38786;BME280;24535;45.508;12.252;2023-03-14T07:35:39;100465.53;;;14.87;66.12
38786;BME280;24535;45.508;12.252;2023-03-14T07:38:04;100455.88;;;14.86;66.23
38786;BME280;24535;45.508;12.252;2023-03-14T07:40:29;100462.88;;;14.87;66.72
38786;BME280;24535;45.508;12.252;2023-03-14T07:42:55;100450.16;;;14.91;66.65
38786;BME280;24535;45.508;12.252;2023-03-14T07:45:20;100449.31;;;14.90;66.37
38786;BME280;24535;45.508;12.252;2023-03-14T07:47:46;100439.00;;;14.87;66.43
38786;BME280;24535;45.508;12.252;2023-03-14T07:50:11;100419.03;;;14.83;66.20
38786;BME280;24535;45.508;12.252;2023-03-14T07:52:37;100406.03;;;14.80;66.04
38786;BME280;24535;45.508;12.252;2023-03-14T07:55:03;100401.56;;;14.80;66.58
38786;BME280;24535;45.508;12.252;2023-03-14T07:57:28;100403.41;;;14.80;66.96
38786;BME280;24535;45.508;12.252;2023-03-14T07:59:54;100408.69;;;14.80;67.04
38786;BME280;24535;45.508;12.252;2023-03-14T08:02:19;100409.69;;;14.79;66.83
38786;BME280;24535;45.508;12.252;2023-03-14T08:04:47;100394.88;;;14.76;66.85
38786;BME280;24535;45.508;12.252;2023-03-14T08:07:13;100395.03;;;14.75;67.90
38786;BME280;24535;45.508;12.252;2023-03-14T08:09:38;100382.88;;;14.72;67.61
38786;BME280;24535;45.508;12.252;2023-03-14T08:12:04;100381.63;;;14.76;67.57
38786;BME280;24535;45.508;12.252;2023-03-14T08:14:29;100380.78;;;14.76;67.74
38786;BME280;24535;45.508;12.252;2023-03-14T08:16:56;100386.75;;;14.78;67.72
38786;BME280;24535;45.508;12.252;2023-03-14T08:19:21;100381.63;;;14.76;68.02
38786;BME280;24535;45.508;12.252;2023-03-14T08:21:47;100374.66;;;14.75;67.78
38786;BME280;24535;45.508;12.252;2023-03-14T08:24:12;100374.75;;;14.74;68.53
38786;BME280;24535;45.508;12.252;2023-03-14T08:26:38;100367.63;;;14.74;67.69
38786;BME280;24535;45.508;12.252;2023-03-14T08:29:04;100372.09;;;14.74;68.63
38786;BME280;24535;45.508;12.252;2023-03-14T08:31:30;100358.84;;;14.74;68.05
38786;BME280;24535;45.508;12.252;2023-03-14T08:33:58;100349.50;;;14.70;68.31
38786;BME280;24535;45.508;12.252;2023-03-14T08:36:24;100352.31;;;14.68;68.60
38786;BME280;24535;45.508;12.252;2023-03-14T08:38:50;100356.88;;;14.66;68.60
38786;BME280;24535;45.508;12.252;2023-03-14T08:41:15;100350.75;;;14.66;68.29
38786;BME280;24535;45.508;12.252;2023-03-14T08:43:41;100335.97;;;14.63;68.64
38786;BME280;24535;45.508;12.252;2023-03-14T08:46:06;100344.19;;;14.60;68.87
38786;BME280;24535;45.508;12.252;2023-03-14T08:48:32;100338.91;;;14.60;68.93
38786;BME280;24535;45.508;12.252;2023-03-14T08:51:07;100329.41;;;14.57;69.03
38786;BME280;24535;45.508;12.252;2023-03-14T08:53:34;100334.69;;;14.57;69.30
38786;BME280;24535;45.508;12.252;2023-03-14T08:55:59;100333.03;;;14.56;69.33
38786;BME280;24535;45.508;12.252;2023-03-14T08:58:25;100334.69;;;14.57;69.40
38786;BME280;24535;45.508;12.252;2023-03-14T09:00:51;100331.78;;;14.61;69.40
38786;BME280;24535;45.508;12.252;2023-03-14T09:03:16;100341.28;;;14.63;70.28
38786;BME280;24535;45.508;12.252;2023-03-14T09:05:41;100335.97;;;14.63;69.57
38786;BME280;24535;45.508;12.252;2023-03-14T09:08:07;100341.53;;;14.70;70.00
38786;BME280;24535;45.508;12.252;2023-03-14T09:10:32;100337.94;;;14.71;69.32
38786;BME280;24535;45.508;12.252;2023-03-14T09:12:58;100337.94;;;14.71;69.38
38786;BME280;24535;45.508;12.252;2023-03-14T09:15:26;100341.28;;;14.73;69.72
38786;BME280;24535;45.508;12.252;2023-03-14T09:17:51;100344.75;;;14.73;69.40
38786;BME280;24535;45.508;12.252;2023-03-14T09:20:17;100356.91;;;14.76;70.32
38786;BME280;24535;45.508;12.252;2023-03-14T09:22:43;100360.25;;;14.78;69.80
38786;BME280;24535;45.508;12.252;2023-03-14T09:25:09;100372.81;;;14.86;69.62
38786;BME280;24535;45.508;12.252;2023-03-14T09:27:35;100357.63;;;14.88;69.66
38786;BME280;24535;45.508;12.252;2023-03-14T09:30:02;100366.81;;;14.93;69.33
38786;BME280;24535;45.508;12.252;2023-03-14T09:32:28;100358.88;;;14.93;69.67
38786;BME280;24535;45.508;12.252;2023-03-14T09:34:53;100368.06;;;14.99;69.25
38786;BME280;24535;45.508;12.252;2023-03-14T09:37:19;100363.31;;;15.02;69.18
38786;BME280;24535;45.508;12.252;2023-03-14T09:39:46;100354.97;;;15.07;68.66
38786;BME280;24535;45.508;12.252;2023-03-14T09:42:15;100354.66;;;15.10;69.19
38786;BME280;24535;45.508;12.252;2023-03-14T09:45:05;100344.75;;;15.12;68.87
38786;BME280;24535;45.508;12.252;2023-03-14T09:47:33;100347.25;;;15.14;68.92
38786;BME280;24535;45.508;12.252;2023-03-14T09:49:59;100336.63;;;15.14;68.73
38786;BME280;24535;45.508;12.252;2023-03-14T09:54:54;100325.19;;;15.13;68.95
38786;BME280;24535;45.508;12.252;2023-03-14T09:57:24;100328.00;;;15.12;68.92
38786;BME280;24535;45.508;12.252;2023-03-14T09:59:52;100326.19;;;15.12;69.13
38786;BME280;24535;45.508;12.252;2023-03-14T10:02:24;100340.84;;;15.16;68.56
38786;BME280;24535;45.508;12.252;2023-03-14T10:04:52;100337.91;;;15.19;68.88
38786;BME280;24535;45.508;12.252;2023-03-14T10:07:25;100342.91;;;15.22;68.68
38786;BME280;24535;45.508;12.252;2023-03-14T10:09:53;100344.44;;;15.25;69.08
38786;BME280;24535;45.508;12.252;2023-03-14T10:12:19;100339.81;;;15.27;68.42
38786;BME280;24535;45.508;12.252;2023-03-14T10:14:51;100340.53;;;15.29;68.31
38786;BME280;24535;45.508;12.252;2023-03-14T10:17:18;100349.88;;;15.33;67.77
38786;BME280;24535;45.508;12.252;2023-03-14T10:19:56;100331.03;;;15.36;68.16
38786;BME280;24535;45.508;12.252;2023-03-14T10:22:26;100338.00;;;15.37;68.22
38786;BME280;24535;45.508;12.252;2023-03-14T10:24:53;100333.38;;;15.39;67.93
38786;BME280;24535;45.508;12.252;2023-03-14T10:27:22;100335.06;;;15.40;67.71
38786;BME280;24535;45.508;12.252;2023-03-14T10:30:03;100325.13;;;15.42;67.67
38786;BME280;24535;45.508;12.252;2023-03-14T10:32:37;100319.81;;;15.42;67.92
38786;BME280;24535;45.508;12.252;2023-03-14T10:35:18;100326.13;;;15.41;68.02
38786;BME280;24535;45.508;12.252;2023-03-14T10:37:53;100319.69;;;15.44;67.92
38786;BME280;24535;45.508;12.252;2023-03-14T10:40:28;100315.50;;;15.41;68.05
38786;BME280;24535;45.508;12.252;2023-03-14T10:42:55;100311.84;;;15.42;67.87
38786;BME280;24535;45.508;12.252;2023-03-14T10:45:50;100310.75;;;15.45;67.72
38786;BME280;24535;45.508;12.252;2023-03-14T10:48:31;100311.28;;;15.48;67.73
38786;BME280;24535;45.508;12.252;2023-03-14T10:51:07;100312.13;;;15.49;67.65
38786;BME280;24535;45.508;12.252;2023-03-14T10:56:18;100317.44;;;15.49;67.64
38786;BME280;24535;45.508;12.252;2023-03-14T10:58:46;100303.31;;;15.48;67.91
38786;BME280;24535;45.508;12.252;2023-03-14T11:04:25;100292.72;;;15.48;67.75
38786;BME280;24535;45.508;12.252;2023-03-14T11:15:20;100315.16;;;15.54;67.54
38786;BME280;24535;45.508;12.252;2023-03-14T11:28:50;100299.63;;;15.59;67.10
38786;BME280;24535;45.508;12.252;2023-03-14T11:31:29;100312.22;;;15.57;67.11
38786;BME280;24535;45.508;12.252;2023-03-14T11:36:39;100303.00;;;15.51;67.30
38786;BME280;24535;45.508;12.252;2023-03-14T11:39:17;100286.97;;;15.53;67.30
38786;BME280;24535;45.508;12.252;2023-03-14T11:41:49;100273.28;;;15.48;67.46
38786;BME280;24535;45.508;12.252;2023-03-14T11:44:23;100276.06;;;15.46;67.65
38786;BME280;24535;45.508;12.252;2023-03-14T11:47:25;100267.44;;;15.44;67.42
38786;BME280;24535;45.508;12.252;2023-03-14T11:55:28;100252.47;;;15.43;67.18
38786;BME280;24535;45.508;12.252;2023-03-14T11:58:01;100249.81;;;15.43;67.28
38786;BME280;24535;45.508;12.252;2023-03-14T12:00:29;100242.84;;;15.42;67.32
38786;BME280;24535;45.508;12.252;2023-03-14T12:06:24;100244.50;;;15.43;67.24
38786;BME280;24535;45.508;12.252;2023-03-14T12:13:53;100229.94;;;15.47;67.28
38786;BME280;24535;45.508;12.252;2023-03-14T12:16:35;100213.19;;;15.47;67.31
38786;BME280;24535;45.508;12.252;2023-03-14T12:22:13;100235.59;;;15.44;67.64
38786;BME280;24535;45.508;12.252;2023-03-14T12:24:50;100222.31;;;15.44;67.61
38786;BME280;24535;45.508;12.252;2023-03-14T12:30:36;100204.69;;;15.43;68.45
38786;BME280;24535;45.508;12.252;2023-03-14T12:38:09;100197.59;;;15.44;68.15
38786;BME280;24535;45.508;12.252;2023-03-14T12:40:46;100190.28;;;15.46;68.73
38786;BME280;24535;45.508;12.252;2023-03-14T12:43:29;100177.72;;;15.48;69.46
38786;BME280;24535;45.508;12.252;2023-03-14T12:48:44;100171.25;;;15.50;68.92
38786;BME280;24535;45.508;12.252;2023-03-14T12:51:18;100169.31;;;15.52;69.53
38786;BME280;24535;45.508;12.252;2023-03-14T12:53:55;100171.66;;;15.55;69.54
38786;BME280;24535;45.508;12.252;2023-03-14T12:56:28;100174.31;;;15.55;69.23
38786;BME280;24535;45.508;12.252;2023-03-14T12:59:13;100177.66;;;15.57;69.72
38786;BME280;24535;45.508;12.252;2023-03-14T13:01:53;100169.41;;;15.61;69.76
38786;BME280;24535;45.508;12.252;2023-03-14T13:04:19;100160.28;;;15.63;69.58
38786;BME280;24535;45.508;12.252;2023-03-14T13:06:58;100148.69;;;15.64;70.23
38786;BME280;24535;45.508;12.252;2023-03-14T13:12:07;100145.72;;;15.77;69.68
38786;BME280;24535;45.508;12.252;2023-03-14T13:14:34;100143.72;;;15.79;69.98
38786;BME280;24535;45.508;12.252;2023-03-14T13:17:01;100139.78;;;15.83;69.85
38786;BME280;24535;45.508;12.252;2023-03-14T13:19:29;100138.88;;;15.92;69.56
38786;BME280;24535;45.508;12.252;2023-03-14T13:22:03;100146.41;;;15.97;69.15
38786;BME280;24535;45.508;12.252;2023-03-14T13:24:33;100138.97;;;16.00;69.32
38786;BME280;24535;45.508;12.252;2023-03-14T13:26:59;100137.66;;;16.04;68.63
38786;BME280;24535;45.508;12.252;2023-03-14T13:29:27;100143.34;;;16.10;68.67
38786;BME280;24535;45.508;12.252;2023-03-14T13:32:01;100141.38;;;16.12;68.12
38786;BME280;24535;45.508;12.252;2023-03-14T13:34:32;100127.13;;;16.13;68.31
38786;BME280;24535;45.508;12.252;2023-03-14T13:36:59;100124.13;;;16.16;68.06
38786;BME280;24535;45.508;12.252;2023-03-14T13:39:26;100127.47;;;16.18;68.25
38786;BME280;24535;45.508;12.252;2023-03-14T13:41:55;100127.31;;;16.19;68.22
38786;BME280;24535;45.508;12.252;2023-03-14T13:46:51;100123.53;;;16.22;68.13
38786;BME280;24535;45.508;12.252;2023-03-14T13:49:26;100133.84;;;16.25;68.49
38786;BME280;24535;45.508;12.252;2023-03-14T13:51:57;100130.88;;;16.28;68.40
38786;BME280;24535;45.508;12.252;2023-03-14T13:54:25;100125.06;;;16.32;67.12
38786;BME280;24535;45.508;12.252;2023-03-14T13:57:08;100125.31;;;16.39;67.29